EDLP/PAD METAR and TAF weather

Enter ICAO airport designator
Station Type Date Time Source
EDLP METAR 2022/10/01 07:20 UTC NOAA

EDLP 010720Z 21020KT 9999 RA FEW020 OVC030 11/08 Q1003


Station Type Date Time Source
EDLP Decoded METAR 2022/10/01 07:20 UTC NOAA

Paderborn / Lippstadt, Germany (EDLP) 51-37N 008-37E
Oct 01, 2022 - 03:20 AM EDT / 2022.10.01 0720 UTC
Wind: from the SSW (210 degrees) at 23 MPH (20 KT):0
Visibility: greater than 7 mile(s):0
Sky conditions: overcast
Weather: rain
Temperature: 51 F (11 C)
Dew Point: 46 F (8 C)
Relative Humidity: 81%
Pressure (altimeter): 29.62 in. Hg (1003 hPa)
ob: EDLP 010720Z 21020KT 9999 RA FEW020 OVC030 11/08 Q1003
cycle: 7

Station Type Date Time Source
EDLP TAF 2022/10/01 06:27 UTC NOAA

TAF TAF EDLP 010500Z 0106/0206 18015G25KT 9999 SCT030
BECMG 0107/0110 24015G25KT
TEMPO 0112/0118 SHRA BKN020CB PROB30
TEMPO 0113/0117 25020G30KT TSRA BKN015CB
BECMG 0115/0118 24010KT
TEMPO 0204/0206 BKN012

Example: see airport list